Saturday, April 19, 2014, 3:35 PM EDT

KFDK, Frederick, Frederick Municipal Airport

Location: Frederick, MD, United States Lat: 39.417
Local Time: 3:35 PM EDT (19:35 GMT) Lon: -77.374
Time Zone: US/Eastern Elev: 301 ft

Show me the last for .
Show Decoded

2014-04-19 14:50 METAR KFDK 191850Z 05004KT 10SM SKC 19/03 A3028 =
2014-04-19 13:50 METAR KFDK 191750Z 01007KT 10SM SKC 19/04 A3029 =
2014-04-19 11:45 METAR KFDK 191545Z 04010G17KT 10SM SKC 18/04 A3032 =
2014-04-19 10:45 METAR KFDK 191445Z 02011G16KT 10SM SKC 15/04 A3034 =
2014-04-19 09:45 METAR KFDK 191345Z 02007KT 7SM HZ SKC 11/06 A3034 =
2014-04-19 08:45 METAR KFDK 191245Z 00000KT 7SM HZ SKC 07/05 A3033 =
2014-04-19 07:45 METAR KFDK 191145Z 00000KT 10SM SKC 05/05 A3033 =
2014-04-19 06:45 METAR KFDK 191045Z 00000KT 10SM SKC 03/03 A3030 =
2014-04-19 06:35 METAR KFDK 191035Z AUTO 01003KT 10SM CLR 03/03 A3030 RMK AO2 =
2014-04-19 06:20 METAR KFDK 191020Z AUTO 00000KT 10SM CLR 03/03 A3029 RMK AO2 =
2014-04-19 06:00 METAR KFDK 191000Z AUTO 00000KT 10SM CLR 03/03 A3028 RMK AO2 =
2014-04-19 05:40 METAR KFDK 190940Z AUTO 00000KT 10SM CLR 03/03 A3027 RMK AO2 =
2014-04-19 05:20 METAR KFDK 190920Z AUTO 00000KT 10SM CLR 03/03 A3026 RMK AO2 =
2014-04-19 05:00 METAR KFDK 190900Z AUTO 00000KT 10SM CLR 03/03 A3027 RMK AO2 =
2014-04-19 04:40 METAR KFDK 190840Z AUTO 00000KT 10SM CLR 03/03 A3026 RMK AO2 =
2014-04-19 04:20 METAR KFDK 190820Z AUTO 00000KT 10SM CLR 05/05 A3027 RMK AO2 =
2014-04-19 04:00 METAR KFDK 190800Z AUTO 04003KT 10SM CLR 04/04 A3027 RMK AO2 =
2014-04-19 03:40 METAR KFDK 190740Z AUTO 00000KT 10SM CLR 05/05 A3027 RMK AO2 =
2014-04-19 03:20 METAR KFDK 190720Z AUTO 00000KT 10SM CLR 04/04 A3028 RMK AO2 =
2014-04-19 03:00 METAR KFDK 190700Z AUTO 00000KT 10SM CLR 04/04 A3028 RMK AO2 =
2014-04-19 02:40 METAR KFDK 190640Z AUTO 00000KT 10SM CLR 04/04 A3028 RMK AO2 =
2014-04-19 02:20 METAR KFDK 190620Z AUTO 00000KT 10SM CLR 05/04 A3028 RMK AO2 =
2014-04-19 02:00 METAR KFDK 190600Z AUTO 00000KT 10SM CLR 05/05 A3029 RMK AO2 =
2014-04-19 01:40 METAR KFDK 190540Z AUTO 00000KT 10SM CLR 05/04 A3029 RMK AO2 =
2014-04-19 01:20 METAR KFDK 190520Z AUTO 00000KT 10SM CLR 06/04 A3030 RMK AO2 =
2014-04-19 01:00 METAR KFDK 190500Z AUTO 17003KT 10SM CLR 06/05 A3030 RMK AO2 =
2014-04-19 00:40 METAR KFDK 190440Z AUTO 00000KT 10SM CLR 06/05 A3030 RMK AO2 =
2014-04-19 00:20 METAR KFDK 190420Z AUTO 00000KT 10SM CLR 06/05 A3030 RMK AO2 =
2014-04-19 00:00 METAR KFDK 190400Z AUTO 00000KT 10SM CLR 06/03 A3030 RMK AO2 =
2014-04-18 23:40 METAR KFDK 190340Z AUTO 00000KT 10SM CLR 06/03 A3030 RMK AO2 =
2014-04-18 23:20 METAR KFDK 190320Z AUTO 00000KT 10SM CLR 07/03 A3030 RMK AO2 =
2014-04-18 22:55 METAR KFDK 190255Z AUTO 00000KT 10SM CLR 07/03 A3030 RMK AO2 =
2014-04-18 22:35 METAR KFDK 190235Z AUTO 00000KT 10SM CLR 08/03 A3031 RMK AO2 =
2014-04-18 22:15 METAR KFDK 190215Z AUTO 00000KT 10SM CLR 08/03 A3032 RMK AO2 =
2014-04-18 21:55 METAR KFDK 190155Z AUTO 00000KT 10SM CLR 08/03 A3033 RMK AO2 =
2014-04-18 21:35 METAR KFDK 190135Z AUTO 10003KT 10SM CLR 09/03 A3033 RMK AO2 =
2014-04-18 21:15 METAR KFDK 190115Z AUTO 12004KT 10SM CLR 09/03 A3033 RMK AO2 =
2014-04-18 20:55 METAR KFDK 190055Z AUTO 13004KT 10SM CLR 09/03 A3033 RMK AO2 =
2014-04-18 19:50 METAR KFDK 182350Z VRB04KT 10SM SKC 11/03 A3030 =
2014-04-18 18:50 METAR KFDK 182250Z VRB04KT 10SM SKC 12/03 A3030 =
2014-04-18 18:15 METAR KFDK 182215Z 13005KT 10SM SKC 13/03 A3031 =
2014-04-18 16:50 METAR KFDK 182050Z 18006KT 10SM SKC 14/03 A3035 =
2014-04-18 15:50 METAR KFDK 181950Z VRB04KT 10SM SKC 14/03 A3037 =

Support USWX by starting your Amazon purchase here.